HK-0003 weather

Peninsula Hotel Helipad
Hong Kong, Hong Kong

Public forecast

Using degrees Celsius for public forecast. Weather courtesy of forecast.io.

METAR (pilot weather report)

Closest report is Hong Kong International Airport, 14.3 nm (26.5 km) W. Retrieved 2019/05/21 12:30 UTC (0 seconds ago):

VHHH 211230Z 06004KT 020V100 5000 -TSRA FEW012 FEW015CB SCT025 25/22 Q1011 RERA TEMPO VRB15G25KT 2500 TSRA SHRA FEW010CB SCT020 BKN040

TAF (pilot weather forecast)

Closest forecast is Hong Kong International Airport, 14.3 nm (26.5 km) W. Retrieved 2019/05/21 12:21 UTC (0 seconds ago):

TAF VHHH 211100Z 2112/2218 09010KT 9000 FEW015 SCT030 TX28/2206Z TN25/2122Z TEMPO 2112/2115 VRB15G25KT 2500 TSRA SHRA FEW010CB SCT020 BKN040 TEMPO 2115/2120 3500 SHRA FEW010CB SCT020 TEMPO 2200/2206 VRB15G25KT 2500 TSRA SHRA FEW010CB SCT020 BKN040 TEMPO 2206/2209 3500 SHRA FEW010CB SCT020